createdAt,value
2024-03-18T00:00:45.059Z,96029.00
2024-03-18T00:01:45.075Z,96029.00
2024-03-18T00:02:45.064Z,96028.00
2024-03-18T00:03:45.060Z,96029.00
2024-03-18T00:04:45.098Z,96027.00
2024-03-18T00:05:50.108Z,96027.00
2024-03-18T00:06:45.055Z,96026.00
2024-03-18T00:07:45.086Z,96027.00
2024-03-18T00:08:45.049Z,96025.00
2024-03-18T00:09:45.062Z,96028.00
2024-03-18T00:10:45.097Z,96029.00
2024-03-18T00:11:45.089Z,96026.00
2024-03-18T00:12:45.047Z,96030.00
2024-03-18T00:13:45.121Z,96031.00
2024-03-18T00:14:45.216Z,96029.00
2024-03-18T00:15:45.323Z,96026.00
2024-03-18T00:16:45.434Z,96022.00
2024-03-18T00:17:45.500Z,96019.00
2024-03-18T00:18:45.607Z,96022.00
2024-03-18T00:19:45.715Z,96023.00
2024-03-18T00:20:45.809Z,96019.00
2024-03-18T00:21:45.866Z,96017.00
2024-03-18T00:22:45.969Z,96014.00
2024-03-18T00:23:46.068Z,96015.00
2024-03-18T00:24:46.154Z,96013.00
2024-03-18T00:25:46.272Z,96012.00
2024-03-18T00:26:46.362Z,96012.00
2024-03-18T00:27:46.447Z,96012.00
2024-03-18T00:28:46.538Z,96010.00
2024-03-18T00:29:46.649Z,96011.00
2024-03-18T00:30:47.177Z,96010.00
2024-03-18T00:31:46.785Z,96009.00
2024-03-18T00:32:46.857Z,96007.00
2024-03-18T00:33:46.881Z,96006.00
2024-03-18T00:34:46.907Z,96006.00
2024-03-18T00:35:50.335Z,96008.00
2024-03-18T00:36:46.950Z,96007.00
2024-03-18T00:37:46.965Z,96007.00
2024-03-18T00:38:47.004Z,96008.00
2024-03-18T00:39:46.985Z,96008.00
2024-03-18T00:40:46.984Z,96006.00
2024-03-18T00:41:47.016Z,96005.00
2024-03-18T00:42:46.965Z,96003.00
2024-03-18T00:43:46.963Z,96003.00
2024-03-18T00:44:46.990Z,96001.00
2024-03-18T00:45:46.977Z,96002.00
2024-03-18T00:46:47.027Z,95997.00
2024-03-18T00:47:47.004Z,95999.00
2024-03-18T00:48:46.994Z,96000.00
2024-03-18T00:49:46.997Z,96000.00
2024-03-18T00:50:46.998Z,96002.00
2024-03-18T00:51:47.005Z,95999.00
2024-03-18T00:52:46.982Z,95998.00
2024-03-18T00:53:47.019Z,95999.00
2024-03-18T00:54:47.003Z,95997.00
2024-03-18T00:55:52.038Z,95995.00
2024-03-18T00:56:46.990Z,95996.00
2024-03-18T00:57:46.991Z,95993.00
2024-03-18T00:58:47.007Z,95991.00
2024-03-18T00:59:47.013Z,95988.00
2024-03-18T01:00:46.994Z,95988.00
2024-03-18T01:01:47.003Z,95988.00
2024-03-18T01:02:46.984Z,95989.00
2024-03-18T01:03:47.081Z,95987.00
2024-03-18T01:04:47.201Z,95988.00
2024-03-18T01:05:47.309Z,95989.00
2024-03-18T01:06:47.390Z,95990.00
2024-03-18T01:07:47.589Z,95992.00
2024-03-18T01:08:47.630Z,95993.00
2024-03-18T01:09:47.716Z,95991.00
2024-03-18T01:10:47.866Z,95992.00
2024-03-18T01:11:47.962Z,95990.00
2024-03-18T01:12:48.028Z,95989.00
2024-03-18T01:13:48.137Z,95987.00
2024-03-18T01:14:48.224Z,95987.00
2024-03-18T01:15:48.362Z,95985.00
2024-03-18T01:16:48.444Z,95983.00
2024-03-18T01:17:48.513Z,95982.00
2024-03-18T01:18:48.593Z,95982.00
2024-03-18T01:19:48.732Z,95982.00
2024-03-18T01:20:48.785Z,95982.00
2024-03-18T01:21:48.907Z,95981.00
2024-03-18T01:22:48.974Z,95981.00
2024-03-18T01:23:49.074Z,95981.00
2024-03-18T01:24:49.168Z,95980.00
2024-03-18T01:25:49.301Z,95981.00
2024-03-18T01:26:49.355Z,95980.00
2024-03-18T01:27:49.443Z,95981.00
2024-03-18T01:28:49.530Z,95978.00
2024-03-18T01:29:49.619Z,95978.00
2024-03-18T01:30:49.719Z,95976.00
2024-03-18T01:31:49.809Z,95976.00
2024-03-18T01:32:53.650Z,95977.00
2024-03-18T01:33:49.861Z,95973.00
2024-03-18T01:34:49.904Z,95974.00
2024-03-18T01:35:50.007Z,95971.00
2024-03-18T01:36:49.882Z,95969.00
2024-03-18T01:37:49.909Z,95969.00
2024-03-18T01:38:49.879Z,95967.00
2024-03-18T01:39:49.882Z,95964.00
2024-03-18T01:40:49.899Z,95966.00
2024-03-18T01:41:49.902Z,95962.00
2024-03-18T01:42:49.901Z,95961.00
2024-03-18T01:43:49.913Z,95959.00
2024-03-18T01:44:49.921Z,95960.00
2024-03-18T01:45:49.873Z,95960.00
2024-03-18T01:46:49.917Z,95958.00
2024-03-18T01:47:49.885Z,95960.00
2024-03-18T01:48:49.910Z,95958.00
2024-03-18T01:49:49.891Z,95958.00
2024-03-18T01:50:49.917Z,95957.00
2024-03-18T01:51:49.882Z,95956.00
2024-03-18T01:52:49.982Z,95956.00
2024-03-18T01:53:49.897Z,95957.00
2024-03-18T01:54:49.899Z,95955.00
2024-03-18T01:55:49.898Z,95954.00
2024-03-18T01:56:49.909Z,95954.00
2024-03-18T01:57:49.900Z,95953.00
2024-03-18T01:58:49.940Z,95953.00
2024-03-18T01:59:49.933Z,95953.00
2024-03-18T02:00:49.935Z,95952.00
2024-03-18T02:01:49.959Z,95953.00
2024-03-18T02:02:50.036Z,95955.00
2024-03-18T02:03:50.051Z,95951.00
2024-03-18T02:04:50.141Z,95952.00
2024-03-18T02:05:50.160Z,95952.00
2024-03-18T02:06:50.215Z,95953.00
2024-03-18T02:07:50.275Z,95956.00
2024-03-18T02:08:50.301Z,95952.00
2024-03-18T02:09:50.352Z,95953.00
2024-03-18T02:10:50.407Z,95952.00
2024-03-18T02:11:50.449Z,95950.00
2024-03-18T02:12:50.494Z,95949.00
2024-03-18T02:13:50.545Z,95945.00
2024-03-18T02:14:50.580Z,95945.00
2024-03-18T02:15:50.614Z,95942.00
2024-03-18T02:16:50.697Z,95943.00
2024-03-18T02:17:50.697Z,95943.00
2024-03-18T02:18:50.758Z,95941.00
2024-03-18T02:19:50.791Z,95940.00
2024-03-18T02:20:50.837Z,95941.00
2024-03-18T02:21:50.887Z,95939.00
2024-03-18T02:22:50.973Z,95940.00
2024-03-18T02:23:51.005Z,95940.00
2024-03-18T02:24:51.011Z,95939.00
2024-03-18T02:25:51.069Z,95938.00
2024-03-18T02:26:51.095Z,95938.00
2024-03-18T02:27:51.132Z,95937.00
2024-03-18T02:29:00.062Z,95938.00
2024-03-18T02:29:51.199Z,95937.00
2024-03-18T02:30:51.194Z,95939.00
2024-03-18T02:31:51.180Z,95939.00
2024-03-18T02:32:51.186Z,95938.00
2024-03-18T02:33:51.179Z,95937.00
2024-03-18T02:34:51.193Z,95933.00
2024-03-18T02:35:51.196Z,95934.00
2024-03-18T02:36:51.195Z,95931.00
2024-03-18T02:37:51.215Z,95931.00
2024-03-18T02:38:51.221Z,95928.00
2024-03-18T02:39:51.225Z,95927.00
2024-03-18T02:40:51.257Z,95927.00
2024-03-18T02:41:51.227Z,95926.00
2024-03-18T02:42:51.233Z,95930.00
2024-03-18T02:43:51.248Z,95928.00
2024-03-18T02:44:51.244Z,95928.00
2024-03-18T02:45:51.225Z,95930.00
2024-03-18T02:46:51.306Z,95925.00
2024-03-18T02:47:51.275Z,95926.00
2024-03-18T02:48:51.239Z,95926.00
2024-03-18T02:49:51.254Z,95925.00
2024-03-18T02:50:51.317Z,95924.00
2024-03-18T02:51:51.247Z,95923.00
2024-03-18T02:52:51.262Z,95921.00
2024-03-18T02:53:51.252Z,95916.00
2024-03-18T02:54:51.264Z,95915.00
2024-03-18T02:55:51.278Z,95913.00
2024-03-18T02:56:51.243Z,95911.00
2024-03-18T02:57:51.247Z,95911.00
2024-03-18T02:58:51.253Z,95907.00
2024-03-18T02:59:51.248Z,95908.00
2024-03-18T03:00:51.265Z,95907.00
2024-03-18T03:01:51.278Z,95906.00
2024-03-18T03:02:51.262Z,95906.00
2024-03-18T03:03:51.263Z,95904.00
2024-03-18T03:04:51.284Z,95902.00
2024-03-18T03:05:51.280Z,95900.00
2024-03-18T03:06:51.291Z,95898.00
2024-03-18T03:07:51.305Z,95897.00
2024-03-18T03:08:51.275Z,95896.00
2024-03-18T03:09:51.298Z,95896.00
2024-03-18T03:10:51.290Z,95897.00
2024-03-18T03:11:51.278Z,95896.00
2024-03-18T03:12:51.284Z,95898.00
2024-03-18T03:13:51.300Z,95899.00
2024-03-18T03:14:51.297Z,95899.00
2024-03-18T03:15:51.300Z,95899.00
2024-03-18T03:16:51.321Z,95902.00
2024-03-18T03:17:51.362Z,95900.00
2024-03-18T03:18:51.368Z,95901.00
2024-03-18T03:19:51.372Z,95900.00
2024-03-18T03:20:51.386Z,95899.00
2024-03-18T03:21:51.380Z,95898.00
2024-03-18T03:22:51.372Z,95896.00
2024-03-18T03:23:51.364Z,95899.00
2024-03-18T03:24:51.361Z,95898.00
2024-03-18T03:25:51.410Z,95895.00
2024-03-18T03:26:51.379Z,95894.00
2024-03-18T03:27:51.369Z,95893.00
2024-03-18T03:28:51.380Z,95892.00
2024-03-18T03:29:51.396Z,95891.00
2024-03-18T03:30:51.423Z,95892.00
2024-03-18T03:31:51.471Z,95889.00
2024-03-18T03:32:51.490Z,95890.00
2024-03-18T03:33:51.524Z,95888.00
2024-03-18T03:34:51.588Z,95886.00
2024-03-18T03:35:51.641Z,95885.00
2024-03-18T03:36:51.705Z,95886.00
2024-03-18T03:37:51.722Z,95883.00
2024-03-18T03:38:51.771Z,95883.00
2024-03-18T03:39:51.771Z,95885.00
2024-03-18T03:40:52.209Z,95887.00
2024-03-18T03:41:51.843Z,95885.00
2024-03-18T03:42:52.004Z,95886.00
2024-03-18T03:43:51.952Z,95885.00
2024-03-18T03:44:51.967Z,95884.00
2024-03-18T03:45:52.001Z,95884.00
2024-03-18T03:46:52.040Z,95881.00
2024-03-18T03:47:52.065Z,95880.00
2024-03-18T03:48:52.105Z,95880.00
2024-03-18T03:49:52.155Z,95879.00
2024-03-18T03:50:52.189Z,95879.00
2024-03-18T03:51:52.214Z,95880.00
2024-03-18T03:52:52.272Z,95878.00
2024-03-18T03:53:52.287Z,95880.00
2024-03-18T03:54:52.335Z,95882.00
2024-03-18T03:55:52.372Z,95880.00
2024-03-18T03:56:52.398Z,95881.00
2024-03-18T03:57:52.442Z,95880.00
2024-03-18T03:58:52.473Z,95879.00
2024-03-18T03:59:52.505Z,95879.00
2024-03-18T04:00:52.720Z,95881.00
2024-03-18T04:01:52.594Z,95881.00
2024-03-18T04:02:52.637Z,95882.00
2024-03-18T04:03:52.653Z,95881.00
2024-03-18T04:04:52.715Z,95881.00
2024-03-18T04:05:52.760Z,95879.00
2024-03-18T04:06:52.778Z,95880.00
2024-03-18T04:07:52.844Z,95876.00
2024-03-18T04:08:52.845Z,95877.00
2024-03-18T04:09:52.889Z,95876.00
2024-03-18T04:10:52.940Z,95877.00
2024-03-18T04:11:52.991Z,95876.00
2024-03-18T04:12:53.013Z,95875.00
2024-03-18T04:13:53.035Z,95873.00
2024-03-18T04:14:53.086Z,95869.00
2024-03-18T04:15:53.138Z,95868.00
2024-03-18T04:16:53.154Z,95867.00
2024-03-18T04:17:53.187Z,95863.00
2024-03-18T04:18:53.243Z,95862.00
2024-03-18T04:19:53.266Z,95867.00
2024-03-18T04:20:53.302Z,95868.00
2024-03-18T04:21:53.336Z,95868.00
2024-03-18T04:22:53.388Z,95865.00
2024-03-18T04:23:53.407Z,95863.00
2024-03-18T04:24:53.457Z,95864.00
2024-03-18T04:25:53.495Z,95863.00
2024-03-18T04:26:53.533Z,95863.00
2024-03-18T04:27:53.570Z,95862.00
2024-03-18T04:28:53.599Z,95863.00
2024-03-18T04:29:53.640Z,95862.00
2024-03-18T04:30:53.680Z,95862.00
2024-03-18T04:31:53.747Z,95862.00
2024-03-18T04:32:53.761Z,95861.00
2024-03-18T04:33:53.787Z,95861.00
2024-03-18T04:34:53.830Z,95859.00
2024-03-18T04:35:53.884Z,95858.00
2024-03-18T04:36:53.913Z,95860.00
2024-03-18T04:37:53.965Z,95861.00
2024-03-18T04:39:01.231Z,95860.00
2024-03-18T04:40:01.224Z,95860.00
2024-03-18T04:41:01.257Z,95863.00
2024-03-18T04:42:01.241Z,95862.00
2024-03-18T04:43:01.243Z,95860.00
2024-03-18T04:44:01.317Z,95861.00
2024-03-18T04:45:01.274Z,95859.00
2024-03-18T04:46:01.262Z,95860.00
2024-03-18T04:47:01.283Z,95856.00
2024-03-18T04:48:01.292Z,95859.00
2024-03-18T04:49:01.287Z,95857.00
2024-03-18T04:50:01.324Z,95855.00
2024-03-18T04:51:01.356Z,95856.00
2024-03-18T04:52:01.430Z,95854.00
2024-03-18T04:53:01.429Z,95854.00
2024-03-18T04:54:01.435Z,95854.00
2024-03-18T04:55:01.479Z,95851.00
2024-03-18T04:56:01.536Z,95853.00
2024-03-18T04:57:01.605Z,95852.00
2024-03-18T04:58:01.670Z,95853.00
2024-03-18T04:59:01.723Z,95850.00
2024-03-18T05:00:01.820Z,95850.00
2024-03-18T05:01:01.843Z,95849.00
2024-03-18T05:02:01.896Z,95847.00
2024-03-18T05:03:01.942Z,95847.00
2024-03-18T05:04:02.002Z,95847.00
2024-03-18T05:05:02.045Z,95847.00
2024-03-18T05:06:02.089Z,95845.00
2024-03-18T05:07:02.140Z,95847.00
2024-03-18T05:08:02.218Z,95846.00
2024-03-18T05:09:02.291Z,95845.00
2024-03-18T05:10:02.351Z,95845.00
2024-03-18T05:11:02.363Z,95845.00
2024-03-18T05:12:02.417Z,95844.00
2024-03-18T05:13:02.541Z,95841.00
2024-03-18T05:14:02.535Z,95845.00
2024-03-18T05:15:02.593Z,95840.00
2024-03-18T05:16:02.654Z,95841.00
2024-03-18T05:17:02.744Z,95840.00
2024-03-18T05:18:02.768Z,95839.00
2024-03-18T05:19:02.819Z,95840.00
2024-03-18T05:20:02.877Z,95841.00
2024-03-18T05:21:02.952Z,95839.00
2024-03-18T05:22:03.001Z,95840.00
2024-03-18T05:23:03.062Z,95838.00
2024-03-18T05:24:04.874Z,95836.00
2024-03-18T05:25:03.166Z,95832.00
2024-03-18T05:26:03.173Z,95829.00
2024-03-18T05:27:03.230Z,95828.00
2024-03-18T05:28:03.240Z,95829.00
2024-03-18T05:29:03.296Z,95826.00
2024-03-18T05:30:03.302Z,95826.00
2024-03-18T05:31:03.331Z,95826.00
2024-03-18T05:32:03.377Z,95824.00
2024-03-18T05:33:03.420Z,95822.00
2024-03-18T05:34:03.431Z,95821.00
2024-03-18T05:35:03.454Z,95826.00
2024-03-18T05:36:03.501Z,95821.00
2024-03-18T05:37:03.573Z,95820.00
2024-03-18T05:38:03.614Z,95823.00
2024-03-18T05:39:03.692Z,95822.00
2024-03-18T05:40:03.733Z,95822.00
2024-03-18T05:41:03.800Z,95822.00
2024-03-18T05:42:03.855Z,95822.00
2024-03-18T05:43:03.902Z,95822.00
2024-03-18T05:44:03.964Z,95819.00
2024-03-18T05:45:04.018Z,95819.00
2024-03-18T05:46:04.086Z,95818.00
2024-03-18T05:47:04.153Z,95816.00
2024-03-18T05:48:06.018Z,95816.00
2024-03-18T05:49:04.195Z,95817.00
2024-03-18T05:50:04.203Z,95814.00
2024-03-18T05:51:04.211Z,95812.00
2024-03-18T05:52:04.198Z,95813.00
2024-03-18T05:53:04.237Z,95809.00
2024-03-18T05:54:04.218Z,95811.00
2024-03-18T05:55:04.232Z,95808.00
2024-03-18T05:56:04.211Z,95808.00
2024-03-18T05:57:04.222Z,95805.00
2024-03-18T05:58:04.201Z,95804.00
2024-03-18T05:59:04.237Z,95805.00
2024-03-18T06:00:04.224Z,95804.00
2024-03-18T06:01:46.412Z,95804.00
2024-03-18T06:02:46.423Z,95805.00
2024-03-18T06:03:46.427Z,95805.00
2024-03-18T06:04:46.431Z,95805.00
2024-03-18T06:05:46.426Z,95806.00
2024-03-18T06:06:46.436Z,95805.00
2024-03-18T06:07:46.421Z,95806.00
2024-03-18T06:08:46.433Z,95803.00
2024-03-18T06:09:46.428Z,95805.00
2024-03-18T06:10:46.449Z,95804.00
2024-03-18T06:11:46.448Z,95803.00
2024-03-18T06:12:46.455Z,95802.00
2024-03-18T06:13:46.442Z,95801.00
2024-03-18T06:14:48.012Z,95802.00
2024-03-18T06:15:46.472Z,95804.00
2024-03-18T06:16:46.482Z,95805.00
2024-03-18T06:17:46.471Z,95810.00
2024-03-18T06:18:46.450Z,95809.00
2024-03-18T06:19:46.457Z,95807.00
2024-03-18T06:20:46.481Z,95809.00
2024-03-18T06:21:46.519Z,95807.00
2024-03-18T06:22:46.466Z,95807.00
2024-03-18T06:23:47.031Z,95807.00
2024-03-18T06:24:46.476Z,95806.00
2024-03-18T06:25:46.475Z,95804.00
2024-03-18T06:26:46.503Z,95804.00
2024-03-18T06:27:46.518Z,95800.00
2024-03-18T06:28:46.497Z,95798.00
2024-03-18T06:29:46.514Z,95794.00
2024-03-18T06:30:46.499Z,95797.00
2024-03-18T06:31:46.542Z,95791.00
2024-03-18T06:32:46.543Z,95791.00
2024-03-18T06:33:46.513Z,95789.00
2024-03-18T06:34:50.032Z,95790.00
2024-03-18T06:35:46.528Z,95791.00
2024-03-18T06:36:46.548Z,95792.00
2024-03-18T06:37:46.587Z,95790.00
2024-03-18T06:38:46.518Z,95787.00
2024-03-18T06:39:46.591Z,95783.00
2024-03-18T06:40:46.539Z,95780.00
2024-03-18T06:41:46.526Z,95779.00
2024-03-18T06:42:46.551Z,95781.00
2024-03-18T06:43:46.545Z,95780.00
2024-03-18T06:44:46.572Z,95779.00
2024-03-18T06:45:46.539Z,95778.00
2024-03-18T06:46:46.545Z,95776.00
2024-03-18T06:47:48.878Z,95777.00
2024-03-18T06:48:46.536Z,95777.00
2024-03-18T06:49:46.559Z,95780.00
2024-03-18T06:50:46.554Z,95777.00
2024-03-18T06:51:46.571Z,95778.00
2024-03-18T06:52:46.556Z,95779.00
2024-03-18T06:53:46.562Z,95778.00
2024-03-18T06:54:46.566Z,95776.00
2024-03-18T06:55:48.677Z,95777.00
2024-03-18T06:56:46.569Z,95776.00
2024-03-18T06:57:46.608Z,95775.00
2024-03-18T06:58:46.599Z,95775.00
2024-03-18T06:59:46.569Z,95775.00
2024-03-18T07:00:46.555Z,95769.00
2024-03-18T07:01:46.571Z,95769.00
2024-03-18T07:02:46.592Z,95768.00
2024-03-18T07:03:46.628Z,95768.00
2024-03-18T07:04:46.695Z,95769.00
2024-03-18T07:05:46.815Z,95767.00
2024-03-18T07:06:46.937Z,95767.00
2024-03-18T07:07:47.057Z,95768.00
2024-03-18T07:08:47.180Z,95770.00
2024-03-18T07:09:47.296Z,95767.00
2024-03-18T07:10:47.500Z,95766.00
2024-03-18T07:11:47.550Z,95767.00
2024-03-18T07:12:47.695Z,95764.00
2024-03-18T07:13:47.784Z,95761.00
2024-03-18T07:14:47.894Z,95758.00
2024-03-18T07:15:48.001Z,95760.00
2024-03-18T07:16:48.093Z,95759.00
2024-03-18T07:17:48.206Z,95758.00
2024-03-18T07:18:48.336Z,95758.00
2024-03-18T07:20:02.876Z,95758.00
2024-03-18T07:20:50.629Z,95759.00
2024-03-18T07:21:48.422Z,95759.00
2024-03-18T07:22:48.453Z,95758.00
2024-03-18T07:23:48.446Z,95759.00
2024-03-18T07:24:48.421Z,95758.00
2024-03-18T07:25:48.442Z,95756.00
2024-03-18T07:26:48.448Z,95755.00
2024-03-18T07:27:48.422Z,95755.00
2024-03-18T07:28:48.427Z,95754.00
2024-03-18T07:29:48.435Z,95753.00
2024-03-18T07:30:48.450Z,95752.00
2024-03-18T07:31:48.473Z,95751.00
2024-03-18T07:32:48.419Z,95750.00
2024-03-18T07:33:48.428Z,95749.00
2024-03-18T07:34:53.274Z,95748.00
2024-03-18T07:35:49.445Z,95746.00
2024-03-18T07:36:48.448Z,95745.00
2024-03-18T07:37:48.442Z,95745.00
2024-03-18T07:38:48.425Z,95744.00
2024-03-18T07:39:48.450Z,95742.00
2024-03-18T07:40:48.443Z,95740.00
2024-03-18T07:41:48.487Z,95741.00
2024-03-18T07:42:48.440Z,95740.00
2024-03-18T07:43:48.493Z,95740.00
2024-03-18T07:44:48.520Z,95736.00
2024-03-18T07:45:48.708Z,95738.00
2024-03-18T07:46:48.736Z,95735.00
2024-03-18T07:47:48.848Z,95734.00
2024-03-18T07:48:48.941Z,95733.00
2024-03-18T07:49:49.067Z,95731.00
2024-03-18T07:50:49.146Z,95731.00
2024-03-18T07:51:49.313Z,95727.00
2024-03-18T07:52:49.392Z,95724.00
2024-03-18T07:53:49.524Z,95721.00
2024-03-18T07:54:49.676Z,95722.00
2024-03-18T07:55:49.829Z,95720.00
2024-03-18T07:56:49.890Z,95720.00
2024-03-18T07:57:50.061Z,95718.00
2024-03-18T07:58:50.117Z,95719.00
2024-03-18T07:59:50.266Z,95719.00
2024-03-18T08:00:50.393Z,95718.00
2024-03-18T08:01:50.535Z,95717.00
2024-03-18T08:02:50.636Z,95720.00
2024-03-18T08:03:50.769Z,95719.00
2024-03-18T08:04:50.879Z,95718.00
2024-03-18T08:05:51.002Z,95719.00
2024-03-18T08:06:51.120Z,95720.00
2024-03-18T08:07:51.242Z,95721.00
2024-03-18T08:08:51.341Z,95719.00
2024-03-18T08:09:51.433Z,95719.00
2024-03-18T08:10:53.321Z,95720.00
2024-03-18T08:11:51.565Z,95718.00
2024-03-18T08:12:51.588Z,95719.00
2024-03-18T08:13:51.668Z,95716.00
2024-03-18T08:14:51.650Z,95715.00
2024-03-18T08:15:51.743Z,95714.00
2024-03-18T08:16:51.754Z,95711.00
2024-03-18T08:17:51.876Z,95713.00
2024-03-18T08:18:51.806Z,95711.00
2024-03-18T08:19:51.935Z,95714.00
2024-03-18T08:20:54.082Z,95712.00
2024-03-18T08:21:51.993Z,95713.00
2024-03-18T08:22:52.053Z,95714.00
2024-03-18T08:23:52.143Z,95715.00
2024-03-18T08:24:52.183Z,95714.00
2024-03-18T08:25:52.295Z,95711.00
2024-03-18T08:26:52.423Z,95711.00
2024-03-18T08:27:52.446Z,95710.00
2024-03-18T08:28:52.521Z,95710.00
2024-03-18T08:29:52.585Z,95709.00
2024-03-18T08:30:52.697Z,95707.00
2024-03-18T08:31:52.738Z,95702.00
2024-03-18T08:33:07.416Z,95704.00
2024-03-18T08:34:04.489Z,95700.00
2024-03-18T08:34:53.847Z,95698.00
2024-03-18T08:35:52.826Z,95697.00
2024-03-18T08:36:52.824Z,95694.00
2024-03-18T08:37:52.842Z,95690.00
2024-03-18T08:38:52.843Z,95690.00
2024-03-18T08:39:53.628Z,95687.00
2024-03-18T08:40:52.856Z,95685.00
2024-03-18T08:41:52.856Z,95683.00
2024-03-18T08:42:52.816Z,95683.00
2024-03-18T08:43:52.824Z,95681.00
2024-03-18T08:44:52.885Z,95681.00
2024-03-18T08:45:52.832Z,95677.00
2024-03-18T08:46:52.831Z,95677.00
2024-03-18T08:47:52.884Z,95680.00
2024-03-18T08:48:52.853Z,95678.00
2024-03-18T08:49:52.848Z,95677.00
2024-03-18T08:50:52.867Z,95675.00
2024-03-18T08:51:52.825Z,95675.00
2024-03-18T08:52:52.832Z,95673.00
2024-03-18T08:53:52.850Z,95673.00
2024-03-18T08:54:52.870Z,95671.00
2024-03-18T08:55:53.015Z,95669.00
2024-03-18T08:56:53.068Z,95669.00
2024-03-18T08:57:53.178Z,95668.00
2024-03-18T08:58:53.341Z,95664.00
2024-03-18T08:59:53.370Z,95663.00
2024-03-18T09:00:53.456Z,95662.00
2024-03-18T09:01:53.545Z,95662.00
2024-03-18T09:02:53.609Z,95662.00
2024-03-18T09:03:53.701Z,95663.00
2024-03-18T09:04:53.777Z,95664.00
2024-03-18T09:05:53.893Z,95662.00
2024-03-18T09:06:53.962Z,95663.00
2024-03-18T09:07:54.007Z,95665.00
2024-03-18T09:08:54.148Z,95665.00
2024-03-18T09:09:54.149Z,95665.00
2024-03-18T09:10:54.224Z,95665.00
2024-03-18T09:11:54.291Z,95669.00
2024-03-18T09:12:54.336Z,95669.00
2024-03-18T09:13:54.410Z,95670.00
2024-03-18T09:14:54.464Z,95671.00
2024-03-18T09:15:54.574Z,95670.00
2024-03-18T09:16:54.615Z,95668.00
2024-03-18T09:17:55.585Z,95668.00
2024-03-18T09:18:54.690Z,95668.00
2024-03-18T09:19:54.770Z,95665.00
2024-03-18T09:20:54.757Z,95662.00
2024-03-18T09:21:54.828Z,95659.00
2024-03-18T09:22:54.885Z,95656.00
2024-03-18T09:23:54.982Z,95659.00
2024-03-18T09:24:55.039Z,95655.00
2024-03-18T09:25:55.126Z,95656.00
2024-03-18T09:26:55.272Z,95654.00
2024-03-18T09:27:55.282Z,95653.00
2024-03-18T09:28:55.368Z,95652.00
2024-03-18T09:29:55.455Z,95650.00
2024-03-18T09:30:55.602Z,95652.00
2024-03-18T09:31:55.659Z,95650.00
2024-03-18T09:32:55.743Z,95651.00
2024-03-18T09:33:55.781Z,95651.00
2024-03-18T09:34:55.879Z,95649.00
2024-03-18T09:35:55.923Z,95650.00
2024-03-18T09:36:56.046Z,95648.00
2024-03-18T09:37:56.065Z,95649.00
2024-03-18T09:38:56.153Z,95652.00
2024-03-18T09:39:56.225Z,95649.00
2024-03-18T09:40:56.277Z,95652.00
2024-03-18T09:41:56.351Z,95651.00
2024-03-18T09:42:56.392Z,95649.00
2024-03-18T09:43:56.454Z,95649.00
2024-03-18T09:44:56.511Z,95649.00
2024-03-18T09:45:56.592Z,95650.00
2024-03-18T09:46:56.607Z,95645.00
2024-03-18T09:47:56.749Z,95647.00
2024-03-18T09:48:56.736Z,95647.00
2024-03-18T09:49:56.806Z,95645.00
2024-03-18T09:50:56.851Z,95643.00
2024-03-18T09:51:56.962Z,95642.00
2024-03-18T09:52:56.967Z,95644.00
2024-03-18T09:53:57.078Z,95644.00
2024-03-18T09:54:57.151Z,95643.00
2024-03-18T09:55:57.201Z,95642.00
2024-03-18T09:56:57.256Z,95642.00
2024-03-18T09:57:57.382Z,95644.00
2024-03-18T09:58:57.424Z,95645.00
2024-03-18T09:59:57.505Z,95644.00
2024-03-18T10:00:57.565Z,95645.00
2024-03-18T10:01:57.700Z,95642.00
2024-03-18T10:02:57.726Z,95643.00
2024-03-18T10:03:57.821Z,95646.00
2024-03-18T10:04:57.894Z,95644.00
2024-03-18T10:05:57.997Z,95645.00
2024-03-18T10:06:58.038Z,95646.00
2024-03-18T10:07:58.114Z,95646.00
2024-03-18T10:08:58.195Z,95644.00
2024-03-18T10:09:58.268Z,95645.00
2024-03-18T10:10:58.365Z,95644.00
2024-03-18T10:11:58.459Z,95644.00
2024-03-18T10:12:58.489Z,95647.00
2024-03-18T10:13:58.599Z,95646.00
2024-03-18T10:14:58.636Z,95644.00
2024-03-18T10:15:58.725Z,95646.00
2024-03-18T10:16:59.549Z,95644.00
2024-03-18T10:17:58.785Z,95645.00
2024-03-18T10:18:58.775Z,95645.00
2024-03-18T10:19:58.837Z,95646.00
2024-03-18T10:20:58.842Z,95648.00
2024-03-18T10:21:58.968Z,95644.00
2024-03-18T10:22:58.871Z,95644.00
2024-03-18T10:23:58.912Z,95645.00
2024-03-18T10:24:58.948Z,95643.00
2024-03-18T10:25:58.961Z,95644.00
2024-03-18T10:26:59.022Z,95644.00
2024-03-18T10:27:59.016Z,95641.00
2024-03-18T10:28:59.068Z,95643.00
2024-03-18T10:29:59.119Z,95642.00
2024-03-18T10:30:59.134Z,95642.00
2024-03-18T10:31:59.183Z,95640.00
2024-03-18T10:32:59.193Z,95640.00
2024-03-18T10:33:59.232Z,95637.00
2024-03-18T10:34:59.272Z,95635.00
2024-03-18T10:35:59.276Z,95635.00
2024-03-18T10:36:59.324Z,95632.00
2024-03-18T10:37:59.371Z,95632.00
2024-03-18T10:38:59.405Z,95631.00
2024-03-18T10:39:59.400Z,95631.00
2024-03-18T10:40:59.640Z,95629.00
2024-03-18T10:41:59.555Z,95629.00
2024-03-18T10:42:59.632Z,95629.00
2024-03-18T10:43:59.656Z,95625.00
2024-03-18T10:44:59.620Z,95626.00
2024-03-18T10:45:59.788Z,95624.00
2024-03-18T10:46:59.822Z,95621.00
2024-03-18T10:47:59.792Z,95621.00
2024-03-18T10:48:59.860Z,95623.00
2024-03-18T10:49:59.960Z,95624.00
2024-03-18T10:50:59.994Z,95622.00
2024-03-18T10:52:00.200Z,95621.00
2024-03-18T10:53:00.133Z,95621.00
2024-03-18T10:54:00.254Z,95622.00
2024-03-18T10:55:00.317Z,95622.00
2024-03-18T10:56:00.355Z,95619.00
2024-03-18T10:57:00.601Z,95618.00
2024-03-18T10:58:00.532Z,95620.00
2024-03-18T10:59:00.597Z,95618.00
2024-03-18T11:00:00.702Z,95617.00
2024-03-18T11:01:00.760Z,95617.00
2024-03-18T11:02:00.816Z,95616.00
2024-03-18T11:03:00.898Z,95615.00
2024-03-18T11:04:00.982Z,95615.00
2024-03-18T11:05:01.121Z,95613.00
2024-03-18T11:06:01.144Z,95612.00
2024-03-18T11:07:01.244Z,95614.00
2024-03-18T11:08:01.337Z,95610.00
2024-03-18T11:09:01.401Z,95611.00
2024-03-18T11:10:01.472Z,95609.00
2024-03-18T11:11:01.564Z,95609.00
2024-03-18T11:12:01.655Z,95609.00
2024-03-18T11:13:01.784Z,95608.00
2024-03-18T11:14:01.898Z,95608.00
2024-03-18T11:15:01.933Z,95611.00
2024-03-18T11:16:02.055Z,95608.00
2024-03-18T11:17:03.960Z,95611.00
2024-03-18T11:18:02.123Z,95610.00
2024-03-18T11:19:02.148Z,95609.00
2024-03-18T11:20:02.135Z,95609.00
2024-03-18T11:21:02.178Z,95610.00
2024-03-18T11:22:02.138Z,95609.00
2024-03-18T11:23:02.167Z,95609.00
2024-03-18T11:24:02.143Z,95608.00
2024-03-18T11:25:02.267Z,95607.00
2024-03-18T11:26:02.165Z,95609.00
2024-03-18T11:27:02.169Z,95606.00
2024-03-18T11:28:02.158Z,95608.00
2024-03-18T11:29:02.168Z,95604.00
2024-03-18T11:30:02.174Z,95607.00
2024-03-18T11:31:02.150Z,95605.00
2024-03-18T11:32:02.205Z,95607.00
2024-03-18T11:33:02.151Z,95608.00
2024-03-18T11:34:02.187Z,95607.00
2024-03-18T11:35:02.159Z,95606.00
2024-03-18T11:36:02.166Z,95604.00
2024-03-18T11:37:02.171Z,95607.00
2024-03-18T11:38:02.226Z,95607.00
2024-03-18T11:39:05.985Z,95604.00
2024-03-18T11:40:02.234Z,95602.00
2024-03-18T11:41:02.209Z,95602.00
2024-03-18T11:42:02.155Z,95601.00
2024-03-18T11:43:02.169Z,95600.00
2024-03-18T11:44:02.234Z,95598.00
2024-03-18T11:45:02.179Z,95596.00
2024-03-18T11:46:02.213Z,95597.00